Archival Weather

Southern Wisconsin Rgnl

Janesville, Wisconsin (KJVL)

Report from: Wednesday, December 6, 2023 2:15 AM CST
Current time: Sunday, February 25, 2024 3:09 PM CST

Current weather – Weather history – Daily summaries
Weather forecast

Temperature1.0°C (33.8°F)
Wind chill-3.1°C (26.4°F)
Dew point-4.0°C (24.8°F)
Winds 8 kts (4.1 m/s, 9.2 mph) Northwest (310°)
Visibility10 mi. (16.1 km)
Clouds Ceiling: Overcast 2,700 ft. (823 m)
Altimeter30.26 in.Hg (1025 mB)
Relative humidity69 %
Density altitude-2,025 ft. (-617 m)
Remarks Fully automated report
Automated weather observing station with precipitation discriminator
Flight conditions Marginal Visual Meteorological Conditions
Raw dataKJVL 060815Z AUTO 31008KT 10SM OVC027 01/M04 A3026 RMK AO2
An error has occurred. This application may no longer respond until reloaded. Reload 🗙